Time;durP1;ratioP1;P1;durP2;ratioP2;P2;SDS_P1;SDS_P2;PMS_P1;PMS_P2;Temp;Humidity;BMP_temperature;BMP_pressure;BME280_temperature;BME280_humidity;BME280_pressure;Samples;Min_cycle;Max_cycle;Signal;HPM_P1;HPM_P2
2021/01/09 00:00:57;;;;;;;20.00;10.70;;;3.80;95.00;;;4.03;77.73;100942.13;4978134;28;20069;-81
2021/01/09 00:03:23;;;;;;;17.02;10.23;;;3.80;95.00;;;3.99;78.23;100940.69;4977550;28;20070;-81
2021/01/09 00:05:51;;;;;;;19.45;10.07;;;4.10;95.10;;;3.99;77.76;100949.63;4977989;28;20078;-82
2021/01/09 00:08:18;;;;;;;14.95;9.63;;;4.00;94.90;;;3.97;78.38;100945.38;4977995;28;20039;-82
2021/01/09 00:10:45;;;;;;;16.70;9.60;;;3.90;94.90;;;4.00;77.86;100945.97;4977993;28;20038;-81
2021/01/09 00:13:12;;;;;;;15.10;9.80;;;3.80;94.90;;;4.01;77.93;100950.34;4978536;28;20050;-81
2021/01/09 00:15:39;;;;;;;15.68;9.63;;;3.90;95.30;;;3.96;77.89;100951.72;4978146;28;20079;-81
2021/01/09 00:18:06;;;;;;;18.52;10.02;;;3.90;95.10;;;3.96;77.96;100949.03;4978446;28;20145;-82
2021/01/09 00:20:33;;;;;;;17.25;9.30;;;3.90;95.00;;;3.96;78.35;100955.28;4977894;28;20078;-82
2021/01/09 00:23:00;;;;;;;18.75;9.98;;;3.90;95.00;;;4.02;78.53;100962.00;4978445;28;20085;-82
2021/01/09 00:25:26;;;;;;;17.70;9.77;;;3.90;95.20;;;4.06;77.80;100966.13;4978268;28;20507;-82
2021/01/09 00:27:53;;;;;;;18.73;10.55;;;3.90;95.20;;;4.04;78.78;100962.72;4978342;28;20089;-81
2021/01/09 00:30:21;;;;;;;17.23;9.93;;;3.90;95.10;;;4.04;77.92;100957.31;4977925;28;20135;-81
2021/01/09 00:32:49;;;;;;;17.15;9.85;;;3.90;95.10;;;4.05;78.05;100964.41;4978120;28;20082;-82
2021/01/09 00:35:16;;;;;;;15.80;9.68;;;3.90;95.30;;;4.06;78.42;100963.44;4977971;28;20101;-82
2021/01/09 00:37:42;;;;;;;18.17;10.30;;;3.90;95.30;;;4.00;78.32;100966.63;4977961;28;20114;-82
2021/01/09 00:40:11;;;;;;;20.85;11.43;;;3.90;95.20;;;4.10;78.29;100968.41;4977215;28;20114;-82
2021/01/09 00:42:38;;;;;;;18.60;10.60;;;3.90;95.30;;;4.09;78.19;100965.84;4977337;28;20070;-81
2021/01/09 00:45:07;;;;;;;21.75;12.07;;;4.00;95.20;;;4.11;78.16;100969.25;4978211;28;20134;-81
2021/01/09 00:47:34;;;;;;;22.55;12.95;;;4.00;95.20;;;4.15;78.42;100968.03;4977178;28;20078;-82
2021/01/09 00:50:03;;;;;;;22.30;13.18;;;4.00;95.20;;;4.09;78.43;100965.84;4977499;28;20042;-81
2021/01/09 00:52:29;;;;;;;24.88;13.45;;;4.00;95.30;;;4.13;78.19;100972.66;4977644;28;20051;-81
2021/01/09 00:54:56;;;;;;;23.55;13.70;;;4.00;95.40;;;4.19;77.94;100972.16;4978132;28;20077;-82
2021/01/09 00:57:23;;;;;;;24.70;14.63;;;4.00;95.40;;;4.18;78.06;100973.13;4977435;28;20081;-81
2021/01/09 00:59:50;;;;;;;25.38;14.73;;;4.00;95.50;;;4.18;77.93;100981.22;4977763;28;20051;-82
2021/01/09 01:02:17;;;;;;;24.58;15.10;;;4.00;95.50;;;4.13;78.27;100979.91;4977576;28;20066;-82
2021/01/09 01:04:44;;;;;;;26.85;14.60;;;4.00;95.40;;;4.15;78.80;100976.13;4978082;28;20039;-82
2021/01/09 01:07:11;;;;;;;25.48;15.02;;;4.20;95.50;;;4.15;78.76;100981.50;4976775;28;20422;-82
2021/01/09 01:09:38;;;;;;;24.95;13.68;;;4.00;95.40;;;4.19;78.44;100982.94;4978078;28;20101;-82
2021/01/09 01:12:06;;;;;;;27.35;15.25;;;4.00;95.30;;;4.20;77.83;100983.78;4977002;28;20105;-82
2021/01/09 01:14:33;;;;;;;27.20;14.85;;;4.00;95.20;;;4.18;77.88;100997.38;4976761;28;20043;-82
2021/01/09 01:17:00;;;;;;;29.70;15.27;;;4.00;95.30;;;4.18;78.49;100992.00;4976781;28;20074;-82
2021/01/09 01:19:26;;;;;;;27.98;15.48;;;4.00;95.30;;;4.18;78.09;100994.69;4976838;28;20362;-82
2021/01/09 01:21:53;;;;;;;27.48;15.18;;;4.10;95.30;;;4.24;78.37;100991.47;4976948;28;20093;-82
2021/01/09 01:24:21;;;;;;;28.05;15.57;;;4.00;95.10;;;4.24;78.40;100996.84;4977381;28;20110;-82
2021/01/09 01:26:47;;;;;;;36.78;16.95;;;4.10;95.20;;;4.19;78.18;101001.81;4977075;28;20082;-81
2021/01/09 01:29:14;;;;;;;34.47;18.65;;;4.10;95.30;;;4.27;77.98;101002.00;4976895;28;20051;-82
2021/01/09 01:31:41;;;;;;;34.33;17.30;;;4.10;94.90;;;4.26;78.24;101005.66;4976546;28;20408;-81
2021/01/09 01:34:08;;;;;;;39.20;20.35;;;4.10;95.30;;;4.26;78.28;101012.88;4976644;28;20092;-81
2021/01/09 01:36:35;;;;;;;36.80;20.13;;;4.10;95.40;;;4.32;77.86;101015.06;4976444;28;20078;-81
2021/01/09 01:39:01;;;;;;;35.30;19.30;;;4.10;95.10;;;4.30;78.13;101015.22;4976399;28;20058;-81
2021/01/09 01:41:29;;;;;;;33.90;17.85;;;4.10;95.30;;;4.28;78.33;101019.88;4976423;28;20047;-82
2021/01/09 01:43:56;;;;;;;33.55;18.75;;;4.10;95.30;;;4.33;77.87;101024.00;4976306;28;20066;-82
2021/01/09 01:46:22;;;;;;;38.97;20.48;;;4.10;95.40;;;4.36;77.74;101026.44;4976418;28;20154;-81
2021/01/09 01:48:49;;;;;;;37.10;20.20;;;4.10;95.30;;;4.37;77.84;101028.16;4977409;28;20125;-81
2021/01/09 01:51:16;;;;;;;35.08;18.90;;;4.10;95.30;;;4.35;77.61;101036.34;4979730;28;20090;-81
2021/01/09 01:53:43;;;;;;;36.38;19.85;;;4.10;95.20;;;4.28;77.92;101030.66;4977280;28;20539;-82
2021/01/09 01:56:10;;;;;;;40.95;20.25;;;4.10;95.30;;;4.25;78.03;101039.00;4976617;28;20055;-81
2021/01/09 01:58:38;;;;;;;35.63;19.83;;;4.10;95.20;;;4.22;78.33;101030.31;4977190;28;20070;-82
2021/01/09 02:01:05;;;;;;;39.22;20.00;;;4.10;95.20;;;4.21;78.21;101037.53;4977312;28;20133;-81
2021/01/09 02:03:35;;;;;;;34.90;19.20;;;4.10;95.20;;;4.13;78.81;101045.41;4976337;28;20082;-82
2021/01/09 02:06:08;;;;;;;37.20;19.75;;;4.10;94.90;;;4.11;78.62;101039.28;4976825;28;20070;-82
2021/01/09 02:08:40;;;;;;;38.05;20.13;;;4.10;95.20;;;4.07;79.08;101048.63;4976845;28;20062;-82
2021/01/09 02:11:23;;;;;;;36.90;19.52;;;4.10;95.20;;;4.04;78.94;101047.06;4976547;28;20078;-82
2021/01/09 02:13:57;;;;;;;42.03;21.23;;;4.20;95.00;;;4.05;79.30;101043.34;4976769;28;20146;-82
2021/01/09 02:16:26;;;;;;;43.30;21.75;;;4.10;95.00;;;4.16;78.83;101042.47;4976802;28;20043;-82
2021/01/09 02:18:54;;;;;;;43.17;21.35;;;4.10;95.00;;;4.19;78.87;101044.03;4976409;28;20057;-81
2021/01/09 02:21:33;;;;;;;41.17;21.20;;;4.10;95.20;;;4.30;78.54;101043.97;4976800;28;20101;-81
2021/01/09 02:24:00;;;;;;;42.45;20.23;;;4.10;95.30;;;4.25;78.66;101039.00;4976961;28;20111;-82
2021/01/09 02:26:27;;;;;;;38.53;20.20;;;4.10;95.20;;;4.26;78.11;101042.53;4976523;28;20121;-81
2021/01/09 02:28:54;;;;;;;38.17;21.02;;;4.10;95.30;;;4.33;77.99;101041.03;4979853;28;20372;-82
2021/01/09 02:31:24;;;;;;;40.40;21.48;;;4.30;95.80;;;4.35;78.25;101047.13;4980123;28;20051;-81
2021/01/09 02:33:50;;;;;;;40.70;21.17;;;4.10;95.60;;;4.21;78.51;101034.84;4980858;28;20082;-82
2021/01/09 02:36:18;;;;;;;45.63;21.75;;;4.10;95.40;;;4.19;78.71;101031.44;4980033;28;20047;-81
2021/01/09 02:38:45;;;;;;;47.33;24.20;;;4.10;95.40;;;4.14;78.84;101038.19;4980883;28;20061;-81
2021/01/09 02:41:14;;;;;;;51.55;24.67;;;4.10;95.40;;;4.10;78.90;101034.91;4979752;28;20151;-81
2021/01/09 02:43:41;;;;;;;47.40;24.52;;;4.10;95.10;;;4.10;78.83;101037.59;4980456;28;20047;-81
2021/01/09 02:46:08;;;;;;;49.47;25.40;;;4.10;95.10;;;4.14;78.12;101039.03;4980290;28;20054;-82
2021/01/09 02:48:34;;;;;;;46.97;24.20;;;4.10;95.10;;;4.15;78.52;101037.19;4962523;28;20047;-82
2021/01/09 02:51:01;;;;;;;51.97;25.65;;;4.10;94.90;;;4.18;78.55;101040.50;4980291;28;20475;-82
2021/01/09 02:53:28;;;;;;;49.25;25.55;;;4.10;95.00;;;4.16;77.78;101034.38;4979727;28;20477;-81
2021/01/09 02:55:55;;;;;;;48.78;23.77;;;4.00;94.90;;;4.15;78.09;101046.16;4979905;28;20134;-82
2021/01/09 02:58:22;;;;;;;46.95;23.80;;;4.10;94.90;;;4.25;77.97;101041.69;4979639;28;20050;-82
2021/01/09 03:00:49;;;;;;;46.42;23.88;;;4.00;94.90;;;4.22;78.02;101051.84;4979817;28;20050;-81
2021/01/09 03:03:16;;;;;;;48.25;23.25;;;3.90;95.00;;;4.18;77.43;101051.25;4979725;28;20069;-82
2021/01/09 03:05:42;;;;;;;49.35;24.02;;;3.90;94.90;;;4.14;77.97;101049.81;4979228;28;20071;-81
2021/01/09 03:08:09;;;;;;;42.92;22.67;;;3.90;94.90;;;4.10;77.65;101056.44;4979839;28;20619;-81
2021/01/09 03:10:36;;;;;;;43.45;22.08;;;3.90;94.80;;;4.02;77.94;101051.72;4979749;28;20117;-82
2021/01/09 03:13:03;;;;;;;43.58;22.75;;;3.90;94.90;;;3.96;78.67;101063.00;4979767;28;20111;-81
2021/01/09 03:15:30;;;;;;;40.97;21.48;;;3.90;94.90;;;3.96;78.76;101062.13;4978430;28;20093;-82
2021/01/09 03:17:57;;;;;;;42.42;21.77;;;3.90;95.00;;;3.91;78.83;101071.44;4979603;28;20078;-82
2021/01/09 03:20:24;;;;;;;38.15;19.77;;;3.90;95.00;;;3.91;79.22;101063.38;4979348;28;20066;-81
2021/01/09 03:22:53;;;;;;;39.00;19.48;;;3.90;95.00;;;3.99;78.19;101061.88;4979295;28;20407;-81
2021/01/09 03:25:20;;;;;;;36.33;18.80;;;3.90;95.10;;;4.04;78.09;101060.50;4979340;28;20122;-81
2021/01/09 03:27:47;;;;;;;32.35;17.75;;;3.90;95.30;;;4.05;78.13;101061.38;4978804;28;20066;-81
2021/01/09 03:30:15;;;;;;;32.70;18.58;;;3.90;95.10;;;4.14;78.34;101060.59;4979411;28;20097;-81
2021/01/09 03:32:43;;;;;;;33.33;18.25;;;4.00;94.90;;;4.17;78.08;101068.44;4978652;28;20126;-82
2021/01/09 03:35:10;;;;;;;32.20;17.55;;;3.90;95.10;;;4.16;77.87;101058.63;4979471;28;20273;-81
2021/01/09 03:37:37;;;;;;;33.90;17.05;;;3.90;94.90;;;4.19;77.70;101055.69;4978589;28;20066;-81
2021/01/09 03:40:04;;;;;;;29.60;15.93;;;3.90;95.00;;;4.17;77.51;101054.97;4979177;28;20145;-81
2021/01/09 03:42:31;;;;;;;28.35;16.45;;;3.90;95.00;;;4.20;77.27;101054.69;4978967;28;20043;-81
2021/01/09 03:44:58;;;;;;;28.85;16.13;;;3.90;94.90;;;4.24;77.02;101053.44;4979585;28;20079;-82
2021/01/09 03:47:25;;;;;;;27.83;15.73;;;3.90;95.00;;;4.14;77.25;101052.50;4979002;28;20066;-81
2021/01/09 03:49:52;;;;;;;25.70;15.43;;;3.80;94.70;;;4.04;77.50;101055.13;4978694;28;20113;-81
2021/01/09 03:52:19;;;;;;;28.00;14.57;;;3.80;94.50;;;4.00;76.82;101063.56;4978872;28;20571;-82
2021/01/09 03:54:46;;;;;;;24.92;14.43;;;3.80;94.40;;;4.02;77.62;101067.03;4960639;28;20050;-82
2021/01/09 03:57:12;;;;;;;27.80;15.90;;;3.80;94.60;;;4.00;77.34;101068.97;4978395;28;20054;-81
2021/01/09 03:59:39;;;;;;;29.25;15.93;;;3.80;94.60;;;4.03;77.24;101069.56;4981682;28;20070;-82
2021/01/09 04:02:06;;;;;;;31.88;16.10;;;3.80;94.70;;;3.98;77.69;101066.41;4978211;28;20098;-82
2021/01/09 04:04:32;;;;;;;29.33;15.40;;;3.80;94.90;;;4.01;77.51;101070.69;4979170;28;20102;-82
2021/01/09 04:07:00;;;;;;;25.38;15.63;;;3.80;94.90;;;4.00;77.94;101074.34;4978226;28;20063;-82
2021/01/09 04:09:27;;;;;;;30.40;16.98;;;3.80;94.90;;;3.96;77.53;101068.41;4978473;28;20058;-81
2021/01/09 04:11:53;;;;;;;33.17;16.52;;;3.80;95.00;;;3.92;77.47;101067.78;4978235;28;20117;-82
2021/01/09 04:14:20;;;;;;;30.13;16.73;;;3.80;95.00;;;3.97;77.99;101067.38;4978390;28;20146;-82
2021/01/09 04:16:47;;;;;;;31.58;16.55;;;3.80;95.10;;;4.00;77.65;101068.97;4978444;28;20121;-81
2021/01/09 04:19:13;;;;;;;36.33;18.42;;;3.80;95.00;;;4.01;77.85;101070.69;4977943;28;20090;-81
2021/01/09 04:21:44;;;;;;;37.25;18.33;;;3.80;94.90;;;3.97;77.29;101072.78;4978597;28;20085;-81
2021/01/09 04:24:12;;;;;;;31.00;17.38;;;3.70;95.00;;;3.95;77.22;101066.66;4978213;28;20526;-81
2021/01/09 04:26:39;;;;;;;36.10;16.95;;;3.70;94.80;;;3.98;77.37;101076.31;4977830;28;20553;-81
2021/01/09 04:29:06;;;;;;;33.58;17.70;;;3.70;94.80;;;3.96;77.23;101078.28;4977570;28;20073;-82
2021/01/09 04:31:33;;;;;;;44.92;20.85;;;3.70;94.80;;;4.02;77.28;101080.50;4978499;28;20123;-81
2021/01/09 04:33:59;;;;;;;46.40;21.05;;;3.70;95.00;;;4.02;77.42;101083.19;4978680;28;20089;-81
2021/01/09 04:36:26;;;;;;;46.88;21.48;;;3.70;94.90;;;4.05;77.60;101091.84;4977386;28;20089;-81
2021/01/09 04:38:53;;;;;;;48.80;23.05;;;3.70;95.00;;;4.03;77.16;101082.19;4978534;28;20082;-81
2021/01/09 04:41:21;;;;;;;56.40;23.27;;;3.70;95.10;;;4.01;77.79;101087.69;4977993;28;20082;-81
2021/01/09 04:43:49;;;;;;;47.88;22.13;;;3.80;95.20;;;3.98;77.55;101084.41;4977953;28;20043;-81
2021/01/09 04:46:17;;;;;;;55.97;24.15;;;3.70;95.20;;;3.96;77.96;101084.53;4977652;28;20089;-81
2021/01/09 04:48:44;;;;;;;58.17;25.20;;;3.80;95.20;;;3.95;78.00;101087.38;4977520;28;20078;-81
2021/01/09 04:51:11;;;;;;;58.00;24.90;;;3.80;95.20;;;3.95;78.31;101087.38;4977168;28;20035;-82
2021/01/09 04:53:41;;;;;;;58.60;25.60;;;3.80;95.20;;;3.91;78.61;101086.75;4977813;28;20054;-81
2021/01/09 04:56:09;;;;;;;64.88;28.20;;;3.80;95.20;;;3.98;77.93;101097.84;4976827;28;20073;-81
2021/01/09 04:58:38;;;;;;;64.93;26.77;;;3.80;95.30;;;3.99;78.04;101094.19;4977561;28;20070;-81
2021/01/09 05:01:05;;;;;;;58.67;27.13;;;3.80;95.40;;;4.08;78.12;101096.13;4977633;28;20043;-81
2021/01/09 05:03:32;;;;;;;64.70;26.55;;;3.90;95.50;;;4.08;78.09;101094.28;4977623;28;20050;-81
2021/01/09 05:05:58;;;;;;;64.32;27.27;;;3.80;95.30;;;3.99;78.23;101092.34;4976428;28;20070;-81
2021/01/09 05:08:25;;;;;;;66.22;27.15;;;3.90;95.40;;;4.04;78.27;101098.22;4977146;28;20042;-82
2021/01/09 05:10:53;;;;;;;67.35;27.50;;;3.90;95.40;;;4.01;78.03;101098.47;4977219;28;20089;-81
2021/01/09 05:13:22;;;;;;;65.75;27.95;;;3.90;95.20;;;4.12;78.07;101105.66;4977202;28;20471;-81
2021/01/09 05:15:54;;;;;;;69.88;28.83;;;3.80;95.30;;;4.07;78.29;101103.38;4976577;28;20054;-81
2021/01/09 05:18:21;;;;;;;66.15;28.33;;;3.90;95.30;;;4.12;77.67;101108.34;4977707;28;20046;-82
2021/01/09 05:20:47;;;;;;;66.55;29.00;;;3.90;95.40;;;4.15;77.57;101113.50;4977537;28;20078;-82
2021/01/09 05:23:18;;;;;;;64.63;28.92;;;3.90;95.50;;;4.16;77.49;101111.66;4976586;28;20145;-82
2021/01/09 05:25:46;;;;;;;67.00;29.10;;;3.90;95.40;;;4.11;77.47;101115.59;4977435;28;20829;-82
2021/01/09 05:28:14;;;;;;;65.07;27.88;;;3.90;95.20;;;4.09;77.57;101113.97;4977537;28;20055;-81
2021/01/09 05:30:43;;;;;;;73.20;28.05;;;3.90;95.20;;;4.04;78.34;101113.53;4959498;28;20137;-82
2021/01/09 05:33:10;;;;;;;66.60;29.67;;;3.90;95.20;;;4.04;78.20;101113.53;4977372;28;20065;-81
2021/01/09 05:35:37;;;;;;;64.53;28.52;;;3.90;95.30;;;4.01;77.97;101121.84;4977032;28;20525;-82
2021/01/09 05:38:04;;;;;;;66.22;27.85;;;3.90;95.20;;;3.99;78.08;101126.50;4977673;28;20090;-82
2021/01/09 05:40:38;;;;;;;60.63;27.20;;;3.90;95.20;;;4.03;78.28;101117.19;4978045;28;20386;-81
2021/01/09 05:43:09;;;;;;;52.33;25.88;;;3.90;95.40;;;4.07;78.23;101118.66;4979108;28;20082;-82
2021/01/09 05:45:39;;;;;;;;;;;3.90;95.30;;;4.14;77.72;101124.41;4978759;28;20515;-82
2021/01/09 05:48:08;;;;;;;56.22;25.02;;;3.90;95.40;;;4.03;77.97;101122.59;4978618;28;19922;-81
2021/01/09 05:50:41;;;;;;;59.65;26.38;;;3.90;95.30;;;4.05;78.00;101131.38;4977966;28;20138;-81
2021/01/09 05:53:08;;;;;;;55.33;26.35;;;3.90;95.40;;;4.02;78.03;101126.28;4977908;28;20051;-81
2021/01/09 05:55:41;;;;;;;61.85;26.85;;;3.90;95.40;;;4.01;78.64;101127.25;4978969;28;20073;-82
2021/01/09 05:58:10;;;;;;;59.13;27.00;;;3.90;95.40;;;4.02;78.86;101128.97;4985486;28;20124;-81
2021/01/09 06:00:38;;;;;;;57.35;26.88;;;3.90;95.50;;;4.05;78.19;101136.78;4999124;28;20062;-82
2021/01/09 06:03:19;;;;;;;55.53;25.60;;;3.90;95.40;;;4.03;78.15;101133.34;4999889;28;20077;-82
2021/01/09 06:05:50;;;;;;;54.63;24.90;;;3.90;95.30;;;4.00;78.31;101134.47;5001458;28;20069;-81
2021/01/09 06:08:26;;;;;;;57.58;26.45;;;3.90;95.30;;;4.10;78.22;101131.88;5001466;28;20106;-81
2021/01/09 06:11:02;;;;;;;55.38;25.13;;;3.90;95.50;;;4.12;78.29;101135.28;5001835;28;20073;-82
2021/01/09 06:13:33;;;;;;;54.13;24.20;;;3.90;95.60;;;4.03;78.23;101136.88;5001579;28;20110;-81
2021/01/09 06:16:05;;;;;;;58.95;26.70;;;3.90;95.60;;;4.00;78.34;101133.59;5000461;28;20066;-82
2021/01/09 06:18:33;;;;;;;51.70;25.00;;;3.90;95.70;;;4.06;78.63;101139.34;5002164;28;20031;-82
2021/01/09 06:21:03;;;;;;;59.50;26.23;;;3.90;95.70;;;4.01;78.29;101135.31;4982732;28;20422;-82
2021/01/09 06:23:31;;;;;;;63.00;26.17;;;3.90;95.60;;;3.95;78.80;101138.53;5001168;28;20621;-82
2021/01/09 06:25:59;;;;;;;63.85;26.65;;;3.90;95.50;;;3.98;79.12;101146.34;5000468;28;20054;-82
2021/01/09 06:28:32;;;;;;;53.38;24.83;;;3.90;95.50;;;4.01;78.58;101141.56;5000504;28;20043;-82
2021/01/09 06:31:00;;;;;;;51.60;24.10;;;3.90;95.70;;;4.13;78.75;101149.59;5000329;28;20727;-82
2021/01/09 06:33:31;;;;;;;56.63;25.13;;;3.90;96.00;;;4.13;78.37;101150.44;5000950;28;20502;-81
2021/01/09 06:36:00;;;;;;;60.72;26.38;;;3.90;96.10;;;4.07;78.70;101148.28;5000450;28;20519;-82
2021/01/09 06:38:28;;;;;;;60.90;26.85;;;3.90;95.80;;;4.05;78.84;101147.53;5001520;28;20065;-81
2021/01/09 06:40:56;;;;;;;58.03;25.90;;;3.90;95.80;;;3.97;78.75;101139.25;5000617;28;20127;-82
2021/01/09 06:43:23;;;;;;;61.40;27.65;;;3.90;95.50;;;3.99;78.88;101148.91;5000516;28;20085;-81
2021/01/09 06:45:50;;;;;;;60.80;27.52;;;3.90;95.60;;;3.99;78.71;101139.97;5000131;28;20074;-81
2021/01/09 06:48:17;;;;;;;63.08;27.80;;;3.90;95.50;;;3.97;78.65;101148.19;5000962;28;20077;-82
2021/01/09 06:50:44;;;;;;;58.20;26.77;;;3.90;95.50;;;4.00;78.61;101147.94;5000212;28;20110;-81
2021/01/09 06:53:15;;;;;;;59.08;26.33;;;3.90;95.60;;;4.02;78.97;101148.66;5000445;28;20472;-81
2021/01/09 06:56:09;;;;;;;61.38;25.60;;;3.90;95.70;;;4.13;78.61;101153.16;4999852;28;20510;-82
2021/01/09 06:58:36;;;;;;;56.33;25.38;;;3.90;96.00;;;4.19;78.45;101159.88;5001845;28;20100;-82
2021/01/09 07:01:24;;;;;;;56.05;25.85;;;3.90;95.90;;;4.18;78.43;101160.88;5001092;28;20557;-81
2021/01/09 07:03:51;;;;;;;52.63;23.05;;;3.90;96.00;;;4.17;78.83;101162.72;4995113;28;20126;-81
2021/01/09 07:07:02;;;;;;;50.60;23.55;;;3.90;96.00;;;4.18;78.17;101168.94;4999840;28;20062;-81
2021/01/09 07:09:30;;;;;;;53.92;25.25;;;3.90;96.00;;;4.17;78.78;101168.09;4999080;28;20065;-82
2021/01/09 07:11:57;;;;;;;58.20;25.63;;;3.90;96.10;;;4.18;78.21;101168.94;4999776;28;20454;-81
2021/01/09 07:14:23;;;;;;;54.08;24.00;;;4.00;96.00;;;4.09;78.65;101160.66;5000006;28;20088;-81
2021/01/09 07:16:51;;;;;;;58.47;25.45;;;3.90;96.00;;;4.09;78.54;101181.31;5000533;28;20065;-81
2021/01/09 07:19:23;;;;;;;54.30;24.27;;;3.90;96.00;;;4.14;78.97;101181.81;5000652;28;20069;-82
2021/01/09 07:21:54;;;;;;;59.08;25.65;;;3.90;95.90;;;4.16;78.33;101174.44;5000226;28;20066;-82
2021/01/09 07:24:23;;;;;;;63.13;28.27;;;3.90;95.90;;;4.18;78.38;101175.19;5000858;28;20054;-81
2021/01/09 07:26:51;;;;;;;62.40;26.45;;;3.90;95.90;;;4.15;78.30;101179.97;4999791;28;20330;-82
2021/01/09 07:29:26;;;;;;;66.30;28.23;;;4.00;95.90;;;4.06;78.64;101177.06;4997823;28;20142;-82
2021/01/09 07:31:53;;;;;;;60.72;25.52;;;3.90;95.70;;;4.02;79.44;101185.53;4979272;28;20513;-84
2021/01/09 07:34:22;;;;;;;64.53;27.15;;;4.00;95.80;;;4.06;79.12;101187.81;4995952;28;20139;-83
2021/01/09 07:36:53;;;;;;;64.13;26.80;;;3.90;96.10;;;4.01;79.29;101190.03;4996032;28;20055;-83
2021/01/09 07:39:23;;;;;;;;;;;4.10;96.10;;;3.92;79.50;101188.97;4996480;28;20057;-83
2021/01/09 07:41:51;;;;;;;66.28;27.92;;;4.00;95.60;;;3.89;79.22;101186.50;4995539;28;19932;-83
2021/01/09 07:44:20;;;;;;;68.13;26.30;;;4.00;95.60;;;4.00;79.33;101192.84;4995430;28;20042;-84
2021/01/09 07:46:55;;;;;;;67.13;27.40;;;4.00;95.80;;;4.01;79.31;101198.09;4994860;28;20499;-83
2021/01/09 07:49:27;;;;;;;73.10;26.80;;;4.00;95.90;;;3.96;79.49;101199.47;4995448;28;20053;-83
2021/01/09 07:52:00;;;;;;;67.95;26.70;;;4.00;95.70;;;3.89;79.70;101196.44;4996713;28;20082;-83
2021/01/09 07:54:38;;;;;;;71.18;27.25;;;4.00;95.60;;;4.03;79.79;101188.06;4995760;28;20109;-84
2021/01/09 07:57:22;;;;;;;70.15;25.77;;;4.00;95.70;;;4.13;79.12;101200.78;4990049;28;20074;-85
2021/01/09 08:00:12;;;;;;;73.03;27.50;;;4.00;95.60;;;4.15;78.58;101197.00;4974338;28;20047;-85
2021/01/09 08:02:40;;;;;;;69.93;27.70;;;4.00;95.70;;;4.02;78.78;101201.69;4986946;28;20450;-82
2021/01/09 08:05:13;;;;;;;63.70;25.95;;;4.00;95.60;;;4.04;78.84;101202.41;4995220;28;20446;-82
2021/01/09 08:07:42;;;;;;;64.85;24.85;;;4.00;95.70;;;4.00;78.74;101203.63;4993573;28;20050;-82
2021/01/09 08:10:23;;;;;;;62.30;26.00;;;4.00;95.40;;;4.00;78.88;101214.38;4985346;28;20069;-83
2021/01/09 08:12:55;;;;;;;58.38;25.48;;;4.00;95.40;;;4.09;79.09;101232.50;4994982;28;20050;-82
2021/01/09 08:15:22;;;;;;;60.90;24.05;;;4.00;95.70;;;4.06;78.74;101240.84;4995513;28;20149;-83
2021/01/09 08:17:49;;;;;;;56.08;23.88;;;4.00;95.80;;;4.05;79.02;101233.72;4994932;28;20579;-81
2021/01/09 08:20:18;;;;;;;58.42;24.70;;;4.00;95.30;;;3.99;78.96;101235.09;4995621;28;20132;-81
2021/01/09 08:22:56;;;;;;;64.90;23.92;;;4.00;95.30;;;3.91;79.24;101242.94;4995799;28;20046;-81
2021/01/09 08:25:27;;;;;;;62.60;25.23;;;3.90;95.30;;;3.85;79.53;101238.91;4995719;28;20047;-81
2021/01/09 08:27:57;;;;;;;55.63;23.60;;;3.90;95.30;;;3.86;79.81;101251.38;4995435;28;20110;-81
2021/01/09 08:30:26;;;;;;;57.60;25.00;;;3.90;95.40;;;3.88;79.50;101262.91;4997321;28;20042;-82
2021/01/09 08:33:06;;;;;;;62.53;26.58;;;3.90;95.50;;;3.88;79.72;101257.50;4995640;28;20038;-81
2021/01/09 08:35:34;;;;;;;55.58;23.63;;;4.00;95.70;;;3.94;79.13;101257.97;4994605;28;20050;-84
2021/01/09 08:38:02;;;;;;;57.50;23.90;;;4.00;95.80;;;3.93;79.44;101259.81;4992909;28;20545;-83
2021/01/09 08:40:31;;;;;;;55.60;22.75;;;4.00;95.60;;;4.00;79.14;101252.09;4993534;28;20093;-83
2021/01/09 08:43:07;;;;;;;54.85;21.67;;;4.00;95.50;;;4.03;79.23;101246.47;4994664;28;20038;-81
2021/01/09 08:45:44;;;;;;;48.47;21.50;;;4.00;95.60;;;4.08;79.26;101255.03;4994211;28;20502;-83
2021/01/09 08:48:16;;;;;;;52.78;22.02;;;4.00;95.70;;;4.07;79.01;101254.19;4995969;28;20077;-83
2021/01/09 08:51:01;;;;;;;55.03;21.52;;;4.00;95.80;;;4.11;79.31;101262.84;4994110;28;20053;-83
2021/01/09 08:53:35;;;;;;;50.17;21.05;;;4.00;95.70;;;4.18;78.62;101261.38;4978145;28;20070;-83
2021/01/09 08:56:04;;;;;;;61.72;23.90;;;4.00;95.80;;;4.20;78.95;101266.66;4994407;28;20046;-83
2021/01/09 08:58:34;;;;;;;57.03;25.45;;;4.00;95.90;;;4.16;79.03;101270.59;4994758;28;20436;-83
2021/01/09 09:01:05;;;;;;;58.20;25.17;;;4.00;95.90;;;4.08;79.18;101272.06;4995080;28;20133;-83
2021/01/09 09:03:33;;;;;;;56.70;21.42;;;4.10;96.10;;;4.10;80.05;101269.25;4994608;28;20414;-83
2021/01/09 09:06:08;;;;;;;55.33;21.85;;;4.10;96.20;;;4.05;79.51;101263.34;4993954;28;20048;-83
2021/01/09 09:08:36;;;;;;;52.10;20.65;;;4.10;96.10;;;4.02;79.82;101267.16;4976355;28;20125;-83
2021/01/09 09:11:04;;;;;;;54.00;21.48;;;4.10;96.10;;;4.00;80.19;101276.34;4993987;28;20097;-83
2021/01/09 09:13:31;;;;;;;53.63;21.52;;;4.10;96.10;;;4.09;79.78;101272.91;4994188;28;20046;-82
2021/01/09 09:16:14;;;;;;;52.35;21.95;;;4.20;95.90;;;4.08;79.62;101287.38;4993469;28;20612;-83
2021/01/09 09:18:41;;;;;;;57.92;21.10;;;4.10;95.80;;;4.09;80.16;101284.56;4994351;28;20054;-83
2021/01/09 09:21:09;;;;;;;41.10;18.13;;;4.20;95.70;;;4.15;79.36;101288.59;4994436;28;20050;-83
2021/01/09 09:23:37;;;;;;;34.35;17.10;;;4.10;95.70;;;4.15;79.07;101288.59;4995211;28;20050;-83
2021/01/09 09:26:10;;;;;;;34.10;15.45;;;4.20;95.50;;;4.15;79.78;101282.31;4994263;28;20042;-83
2021/01/09 09:28:52;;;;;;;29.23;14.82;;;4.20;95.30;;;4.13;79.65;101281.59;4995018;28;20097;-83
2021/01/09 09:31:27;;;;;;;32.33;15.85;;;4.10;95.30;;;4.13;79.83;101290.53;4994034;28;20038;-83
2021/01/09 09:34:06;;;;;;;29.25;15.73;;;4.20;95.60;;;4.12;79.48;101294.22;4993830;28;20065;-82
2021/01/09 09:36:36;;;;;;;27.70;14.25;;;4.20;95.50;;;4.13;79.47;101295.91;4998917;28;20070;-83
2021/01/09 09:39:18;;;;;;;25.65;13.98;;;4.10;95.50;;;4.19;78.96;101300.81;5001582;28;20410;-83
2021/01/09 09:41:57;;;;;;;27.27;14.15;;;4.20;95.20;;;4.17;79.34;101302.78;5001664;28;20058;-84
2021/01/09 09:44:39;;;;;;;26.45;13.45;;;4.20;95.30;;;4.13;79.28;101292.38;5001920;28;20458;-80
2021/01/09 09:47:08;;;;;;;26.17;13.82;;;4.20;95.20;;;4.06;79.58;101311.72;5001723;28;20422;-81
2021/01/09 09:49:37;;;;;;;25.17;13.65;;;4.20;95.10;;;4.03;79.10;101309.25;5002144;28;20046;-82
2021/01/09 09:52:16;;;;;;;28.83;14.05;;;4.20;94.70;;;4.18;79.43;101312.56;5001388;28;20406;-81
2021/01/09 09:54:44;;;;;;;29.02;14.35;;;4.20;95.00;;;4.21;78.66;101315.03;5001554;28;20710;-82
2021/01/09 09:57:21;;;;;;;30.20;14.88;;;4.10;95.30;;;4.23;79.28;101313.06;5000877;28;20093;-81
2021/01/09 10:00:05;;;;;;;31.17;14.80;;;4.20;95.30;;;4.27;78.35;101319.06;5001106;28;20085;-81
2021/01/09 10:02:53;;;;;;;28.80;15.47;;;4.20;95.20;;;4.20;78.97;101318.69;5000088;28;20062;-82
2021/01/09 10:05:21;;;;;;;36.78;17.63;;;4.10;95.10;;;4.09;79.08;101316.00;4999019;28;20172;-83
2021/01/09 10:07:48;;;;;;;36.05;16.27;;;4.10;95.20;;;4.06;79.42;101316.25;5001049;28;20506;-81
2021/01/09 10:10:16;;;;;;;29.55;15.18;;;4.30;95.40;;;4.13;79.27;101312.06;5000886;28;20046;-81
2021/01/09 10:12:53;;;;;;;31.90;15.43;;;4.10;95.50;;;4.16;79.49;101309.16;5000405;28;20042;-81
2021/01/09 10:15:21;;;;;;;31.40;15.18;;;4.20;95.40;;;4.22;79.54;101307.78;5001035;28;20082;-82
2021/01/09 10:17:52;;;;;;;34.15;14.63;;;4.20;95.40;;;4.20;78.70;101313.31;5002618;28;20557;-83
2021/01/09 10:20:18;;;;;;;30.17;14.60;;;4.20;95.20;;;4.14;78.94;101307.56;5003291;28;20144;-82
2021/01/09 10:22:45;;;;;;;29.05;14.07;;;4.20;95.10;;;4.16;79.14;101311.84;5001891;28;20038;-82